createdAt,value
2018-12-02T00:00:43.478Z,9.90
2018-12-02T00:03:11.880Z,9.90
2018-12-02T00:05:40.290Z,9.90
2018-12-02T00:08:08.765Z,9.90
2018-12-02T00:10:37.617Z,9.90
2018-12-02T00:13:06.094Z,9.90
2018-12-02T00:15:36.017Z,9.90
2018-12-02T00:18:04.990Z,10.00
2018-12-02T00:20:33.359Z,10.00
2018-12-02T00:23:01.776Z,10.10
2018-12-02T00:25:30.191Z,10.00
2018-12-02T00:27:59.827Z,10.00
2018-12-02T00:30:30.040Z,10.00
2018-12-02T00:32:58.605Z,10.00
2018-12-02T00:35:27.186Z,10.00
2018-12-02T00:37:57.594Z,10.00
2018-12-02T00:40:26.007Z,10.10
2018-12-02T00:42:57.288Z,10.10
2018-12-02T00:45:29.818Z,10.20
2018-12-02T00:47:58.391Z,10.20
2018-12-02T00:50:26.842Z,10.20
2018-12-02T00:52:56.330Z,10.20
2018-12-02T00:55:25.916Z,10.20
2018-12-02T00:57:54.382Z,10.20
2018-12-02T01:00:22.762Z,10.20
2018-12-02T01:02:51.583Z,10.20
2018-12-02T01:05:20.959Z,10.20
2018-12-02T01:07:49.454Z,10.30
2018-12-02T01:10:19.736Z,10.30
2018-12-02T01:12:49.055Z,10.30
2018-12-02T01:15:19.606Z,10.30
2018-12-02T01:17:48.015Z,10.30
2018-12-02T01:20:17.231Z,10.30
2018-12-02T01:22:45.639Z,10.30
2018-12-02T01:25:14.540Z,10.30
2018-12-02T01:27:43.430Z,10.30
2018-12-02T01:30:23.226Z,10.30
2018-12-02T01:32:53.398Z,10.40
2018-12-02T01:35:21.906Z,10.30
2018-12-02T01:37:50.399Z,10.30
2018-12-02T01:40:20.462Z,10.20
2018-12-02T01:42:49.302Z,10.20
2018-12-02T01:45:26.510Z,10.20
2018-12-02T01:47:55.729Z,10.20
2018-12-02T01:50:24.984Z,10.10
2018-12-02T01:52:54.213Z,10.10
2018-12-02T01:55:22.692Z,10.00
2018-12-02T01:57:51.091Z,10.00
2018-12-02T02:00:22.569Z,10.00
2018-12-02T02:02:51.328Z,10.00
2018-12-02T02:05:20.555Z,10.00
2018-12-02T02:07:49.006Z,10.00
2018-12-02T02:10:20.493Z,10.00
2018-12-02T02:12:48.912Z,9.90
2018-12-02T02:15:17.800Z,9.90
2018-12-02T02:17:46.774Z,10.00
2018-12-02T02:20:16.047Z,9.90
2018-12-02T02:22:44.682Z,9.90
2018-12-02T02:25:14.179Z,9.90
2018-12-02T02:27:43.639Z,9.90
2018-12-02T02:30:27.609Z,9.90
2018-12-02T02:32:55.993Z,9.90
2018-12-02T02:35:24.449Z,9.90
2018-12-02T02:37:53.946Z,9.90
2018-12-02T02:40:25.366Z,10.00
2018-12-02T02:42:53.810Z,10.00
2018-12-02T02:45:22.255Z,10.00
2018-12-02T02:47:50.692Z,10.00
2018-12-02T02:50:22.559Z,9.90
2018-12-02T02:52:53.024Z,9.90
2018-12-02T02:55:21.431Z,10.00
2018-12-02T02:57:49.894Z,10.00
2018-12-02T03:00:19.219Z,10.00
2018-12-02T03:02:47.578Z,9.90
2018-12-02T03:05:16.488Z,9.90
2018-12-02T03:07:44.933Z,9.90
2018-12-02T03:10:17.328Z,9.90
2018-12-02T03:12:51.586Z,9.90
2018-12-02T03:15:20.514Z,9.80
2018-12-02T03:17:48.920Z,9.70
2018-12-02T03:20:19.004Z,9.70
2018-12-02T03:22:49.280Z,9.70
2018-12-02T03:25:19.479Z,9.60
2018-12-02T03:27:47.878Z,9.60
2018-12-02T03:30:21.962Z,9.60
2018-12-02T03:32:50.369Z,9.50
2018-12-02T03:35:19.650Z,9.60
2018-12-02T03:37:48.034Z,9.50
2018-12-02T03:40:19.361Z,9.50
2018-12-02T03:42:47.775Z,9.50
2018-12-02T03:45:17.178Z,9.50
2018-12-02T03:47:45.542Z,9.50
2018-12-02T03:50:17.719Z,9.50
2018-12-02T03:52:44.261Z,9.50
2018-12-02T03:55:12.743Z,9.50
2018-12-02T03:57:41.177Z,9.50
2018-12-02T04:00:20.942Z,9.50
2018-12-02T04:02:49.514Z,9.50
2018-12-02T04:05:19.744Z,9.40
2018-12-02T04:07:48.119Z,9.40
2018-12-02T04:10:17.275Z,9.40
2018-12-02T04:12:46.397Z,9.50
2018-12-02T04:15:19.655Z,9.50
2018-12-02T04:17:48.033Z,9.40
2018-12-02T04:20:17.143Z,9.40
2018-12-02T04:22:46.272Z,9.40
2018-12-02T04:25:17.562Z,9.40
2018-12-02T04:27:45.999Z,9.30
2018-12-02T04:30:17.150Z,9.30
2018-12-02T04:32:46.091Z,9.40
2018-12-02T04:35:20.256Z,9.40
2018-12-02T04:37:48.736Z,9.30
2018-12-02T04:40:17.115Z,9.30
2018-12-02T04:42:45.482Z,9.40
2018-12-02T04:45:15.608Z,9.30
2018-12-02T04:47:44.076Z,9.40
2018-12-02T04:50:15.287Z,9.40
2018-12-02T04:52:43.713Z,9.40
2018-12-02T04:55:12.168Z,9.30
2018-12-02T04:57:40.577Z,9.30
2018-12-02T05:00:10.461Z,9.40
2018-12-02T05:02:38.880Z,9.40
2018-12-02T05:05:14.976Z,9.40
2018-12-02T05:07:43.498Z,9.40
2018-12-02T05:10:13.919Z,9.40
2018-12-02T05:12:42.547Z,9.40
2018-12-02T05:15:12.164Z,9.40
2018-12-02T05:17:41.521Z,9.40
2018-12-02T05:20:12.938Z,9.50
2018-12-02T05:22:41.365Z,9.50
2018-12-02T05:25:10.556Z,9.40
2018-12-02T05:27:39.617Z,9.40
2018-12-02T05:30:16.579Z,9.40
2018-12-02T05:32:45.678Z,9.40
2018-12-02T05:35:14.525Z,9.40
2018-12-02T05:37:43.058Z,9.40
2018-12-02T05:40:20.354Z,9.40
2018-12-02T05:42:48.968Z,9.50
2018-12-02T05:45:18.175Z,9.50
2018-12-02T05:47:46.607Z,9.50
2018-12-02T05:50:18.543Z,9.50
2018-12-02T05:52:49.136Z,9.50
2018-12-02T05:55:18.988Z,9.60
2018-12-02T05:57:47.393Z,9.50
2018-12-02T06:00:18.277Z,9.50
2018-12-02T06:02:46.670Z,9.50
2018-12-02T06:05:15.050Z,9.50
2018-12-02T06:07:43.550Z,9.50
2018-12-02T06:10:15.805Z,9.50
2018-12-02T06:12:44.292Z,9.50
2018-12-02T06:15:14.424Z,9.50
2018-12-02T06:17:43.096Z,9.50
2018-12-02T06:20:22.923Z,9.50
2018-12-02T06:22:52.334Z,9.50
2018-12-02T06:25:20.759Z,9.60
2018-12-02T06:27:49.191Z,9.60
2018-12-02T06:30:20.430Z,9.60
2018-12-02T06:32:52.042Z,9.60
2018-12-02T06:35:20.490Z,9.60
2018-12-02T06:37:49.114Z,9.70
2018-12-02T06:40:20.332Z,9.70
2018-12-02T06:42:48.957Z,9.70
2018-12-02T06:45:17.350Z,9.70
2018-12-02T06:47:45.750Z,9.70
2018-12-02T06:50:15.222Z,9.70
2018-12-02T06:52:43.634Z,9.70
2018-12-02T06:55:21.913Z,9.70
2018-12-02T06:57:59.260Z,9.80
2018-12-02T07:02:44.861Z,9.80
2018-12-02T07:05:17.995Z,9.80
2018-12-02T07:07:46.606Z,9.80
2018-12-02T07:10:15.008Z,9.80
2018-12-02T07:12:43.437Z,9.90
2018-12-02T07:15:11.989Z,9.90
2018-12-02T07:17:47.827Z,9.90
2018-12-02T07:20:17.609Z,9.90
2018-12-02T07:22:47.452Z,9.90
2018-12-02T07:25:18.195Z,9.90
2018-12-02T07:27:46.677Z,9.90
2018-12-02T07:30:15.222Z,9.90
2018-12-02T07:32:43.631Z,9.90
2018-12-02T07:35:13.099Z,9.90
2018-12-02T07:37:43.866Z,9.90
2018-12-02T07:40:21.543Z,9.90
2018-12-02T07:42:50.084Z,9.90
2018-12-02T07:45:18.470Z,9.90
2018-12-02T07:47:46.895Z,9.90
2018-12-02T07:50:15.335Z,10.00
2018-12-02T07:52:43.791Z,10.00
2018-12-02T07:55:12.244Z,10.00
2018-12-02T07:57:42.006Z,10.00
2018-12-02T08:00:13.935Z,10.10
2018-12-02T08:02:42.358Z,10.10
2018-12-02T08:05:11.879Z,10.10
2018-12-02T08:07:40.509Z,10.20
2018-12-02T08:10:11.610Z,10.20
2018-12-02T08:12:40.080Z,10.20
2018-12-02T08:15:11.686Z,10.20
2018-12-02T08:17:40.245Z,10.30
2018-12-02T08:20:10.973Z,10.30
2018-12-02T08:22:39.609Z,10.30
2018-12-02T08:25:14.794Z,10.30
2018-12-02T08:27:43.337Z,10.30
2018-12-02T08:30:27.337Z,10.40
2018-12-02T08:32:56.203Z,10.40
2018-12-02T08:35:26.973Z,10.50
2018-12-02T08:38:02.841Z,10.50
2018-12-02T08:40:31.487Z,10.50
2018-12-02T08:43:00.035Z,10.50
2018-12-02T08:45:28.434Z,10.50
2018-12-02T08:47:57.028Z,10.50
2018-12-02T08:50:25.616Z,10.50
2018-12-02T08:52:54.083Z,10.60
2018-12-02T08:55:22.603Z,10.50
2018-12-02T08:57:53.181Z,10.50
2018-12-02T09:00:22.275Z,10.60
2018-12-02T09:02:58.926Z,10.60
2018-12-02T09:05:27.424Z,10.60
2018-12-02T09:07:57.159Z,10.70
2018-12-02T09:10:26.713Z,10.70
2018-12-02T09:12:57.485Z,10.70
2018-12-02T09:15:26.078Z,10.70
2018-12-02T09:17:54.515Z,10.70
2018-12-02T09:20:26.217Z,10.70
2018-12-02T09:22:54.760Z,10.80
2018-12-02T09:25:23.198Z,10.80
2018-12-02T09:27:51.635Z,10.80
2018-12-02T09:30:21.342Z,10.90
2018-12-02T09:32:49.788Z,11.00
2018-12-02T09:35:18.231Z,10.90
2018-12-02T09:37:47.298Z,11.00
2018-12-02T09:40:16.300Z,11.00
2018-12-02T09:42:47.674Z,11.00
2018-12-02T09:45:19.084Z,11.00
2018-12-02T09:47:47.575Z,11.10
2018-12-02T09:50:16.500Z,11.10
2018-12-02T09:52:44.963Z,11.10
2018-12-02T09:55:17.117Z,11.20
2018-12-02T09:57:45.619Z,11.20
2018-12-02T10:00:19.832Z,11.20
2018-12-02T10:02:48.291Z,11.20
2018-12-02T10:05:16.779Z,11.20
2018-12-02T10:07:46.211Z,11.20
2018-12-02T10:10:22.134Z,11.30
2018-12-02T10:13:04.033Z,11.20
2018-12-02T10:15:32.443Z,11.30
2018-12-02T10:18:01.119Z,11.30
2018-12-02T10:20:29.527Z,11.30
2018-12-02T10:22:57.988Z,11.30
2018-12-02T10:25:26.453Z,11.40
2018-12-02T10:27:54.941Z,11.40
2018-12-02T10:30:24.283Z,11.40
2018-12-02T10:32:53.628Z,11.50
2018-12-02T10:35:22.111Z,11.60
2018-12-02T10:37:51.614Z,11.70
2018-12-02T10:40:21.073Z,11.80
2018-12-02T10:42:49.515Z,12.00
2018-12-02T10:45:19.520Z,12.10
2018-12-02T10:47:48.138Z,12.20
2018-12-02T10:50:20.532Z,12.10
2018-12-02T10:52:49.444Z,12.10
2018-12-02T10:55:38.071Z,12.10
2018-12-02T10:58:09.470Z,12.20
2018-12-02T11:00:43.195Z,12.20
2018-12-02T11:03:11.613Z,12.30
2018-12-02T11:05:40.042Z,12.30
2018-12-02T11:08:08.527Z,12.40
2018-12-02T11:10:36.956Z,12.40
2018-12-02T11:13:05.490Z,12.50
2018-12-02T11:15:33.928Z,12.60
2018-12-02T11:18:03.411Z,12.60
2018-12-02T11:20:38.442Z,12.70
2018-12-02T11:23:08.225Z,12.70
2018-12-02T11:25:37.096Z,12.80
2018-12-02T11:28:06.326Z,12.90
2018-12-02T11:30:34.838Z,13.00
2018-12-02T11:33:03.395Z,13.10
2018-12-02T11:35:31.844Z,13.10
2018-12-02T11:38:00.286Z,13.20
2018-12-02T11:40:28.729Z,13.20
2018-12-02T11:42:57.245Z,13.30
2018-12-02T11:45:25.727Z,13.30
2018-12-02T11:47:54.810Z,13.40
2018-12-02T11:50:24.124Z,13.40
2018-12-02T11:52:52.575Z,13.40
2018-12-02T11:55:21.870Z,13.40
2018-12-02T11:57:50.529Z,13.40
2018-12-02T12:00:27.575Z,13.40
2018-12-02T12:02:56.904Z,13.40
2018-12-02T12:05:25.420Z,13.50
2018-12-02T12:07:53.911Z,13.50
2018-12-02T12:10:27.148Z,13.70
2018-12-02T12:12:56.653Z,13.70
2018-12-02T12:15:25.974Z,13.80
2018-12-02T12:17:54.971Z,13.90
2018-12-02T12:20:29.061Z,14.00
2018-12-02T12:22:57.602Z,14.10
2018-12-02T12:25:26.244Z,14.10
2018-12-02T12:27:56.674Z,14.20
2018-12-02T12:30:28.075Z,14.20
2018-12-02T12:32:56.507Z,14.20
2018-12-02T12:35:25.369Z,14.20
2018-12-02T12:37:54.500Z,14.30
2018-12-02T12:40:32.933Z,14.30
2018-12-02T12:43:33.762Z,14.30
2018-12-02T12:46:03.317Z,14.20
2018-12-02T12:48:31.867Z,14.30
2018-12-02T12:51:00.360Z,14.20
2018-12-02T12:53:28.809Z,14.10
2018-12-02T12:55:57.252Z,14.10
2018-12-02T12:58:25.690Z,14.00
2018-12-02T13:00:54.139Z,14.00
2018-12-02T13:03:22.601Z,14.10
2018-12-02T13:05:51.210Z,14.10
2018-12-02T13:08:19.644Z,14.20
2018-12-02T13:10:48.055Z,14.20
2018-12-02T13:13:16.498Z,14.30
2018-12-02T13:15:44.946Z,14.40
2018-12-02T13:18:13.478Z,14.40
2018-12-02T13:20:45.999Z,14.40
2018-12-02T13:23:14.461Z,14.40
2018-12-02T13:25:42.896Z,14.30
2018-12-02T13:28:11.363Z,14.20
2018-12-02T13:30:39.866Z,14.30
2018-12-02T13:33:08.350Z,14.20
2018-12-02T13:35:37.499Z,14.30
2018-12-02T13:38:06.163Z,14.30
2018-12-02T13:40:34.726Z,14.50
2018-12-02T13:43:07.104Z,14.50
2018-12-02T13:45:35.547Z,14.50
2018-12-02T13:48:04.076Z,14.50
2018-12-02T13:50:32.538Z,14.40
2018-12-02T13:53:00.962Z,14.40
2018-12-02T13:55:30.466Z,14.50
2018-12-02T13:57:59.731Z,14.50
2018-12-02T14:00:28.815Z,14.50
2018-12-02T14:03:04.476Z,14.50
2018-12-02T14:05:33.034Z,14.40
2018-12-02T14:08:01.429Z,14.40
2018-12-02T14:10:29.915Z,14.40
2018-12-02T14:13:03.614Z,14.50
2018-12-02T14:15:43.282Z,14.50
2018-12-02T14:18:25.523Z,14.50
2018-12-02T14:20:54.027Z,14.50
2018-12-02T14:23:22.447Z,14.40
2018-12-02T14:25:50.990Z,14.30
2018-12-02T14:28:23.392Z,14.20
2018-12-02T14:30:51.843Z,14.20
2018-12-02T14:33:20.996Z,14.20
2018-12-02T14:35:49.366Z,14.20
2018-12-02T14:38:17.831Z,14.30
2018-12-02T14:40:46.256Z,14.30
2018-12-02T14:43:14.704Z,14.20
2018-12-02T14:45:43.132Z,14.20
2018-12-02T14:48:11.543Z,14.20
2018-12-02T14:50:39.967Z,14.20
2018-12-02T14:53:08.523Z,14.20
2018-12-02T14:55:36.946Z,14.10
2018-12-02T14:58:05.768Z,14.10
2018-12-02T15:00:34.283Z,14.10
2018-12-02T15:03:02.755Z,14.10
2018-12-02T15:05:31.207Z,14.10
2018-12-02T15:07:59.647Z,14.10
2018-12-02T15:10:28.128Z,14.10
2018-12-02T15:12:56.571Z,14.10
2018-12-02T15:15:25.057Z,14.10
2018-12-02T15:17:53.527Z,14.10
2018-12-02T15:20:21.952Z,14.20
2018-12-02T15:22:51.186Z,14.10
2018-12-02T15:25:19.638Z,14.10
2018-12-02T15:27:48.092Z,14.10
2018-12-02T15:30:17.418Z,14.20
2018-12-02T15:32:48.852Z,14.20
2018-12-02T15:35:17.405Z,14.10
2018-12-02T15:37:45.899Z,14.10
2018-12-02T15:40:15.362Z,14.00
2018-12-02T15:42:46.274Z,14.00
2018-12-02T15:45:15.258Z,14.10
2018-12-02T15:47:43.697Z,14.00
2018-12-02T15:50:17.280Z,14.00
2018-12-02T15:52:46.110Z,13.90
2018-12-02T15:55:30.553Z,13.90
2018-12-02T15:57:59.986Z,13.90
2018-12-02T16:00:32.373Z,13.90
2018-12-02T16:03:00.799Z,13.90
2018-12-02T16:05:29.298Z,13.90
2018-12-02T16:07:57.901Z,13.90
2018-12-02T16:10:26.324Z,13.90
2018-12-02T16:12:55.614Z,13.90
2018-12-02T16:15:33.076Z,13.90
2018-12-02T16:18:02.032Z,13.90
2018-12-02T16:20:37.559Z,13.90
2018-12-02T16:23:07.046Z,14.10
2018-12-02T16:25:35.655Z,14.10
2018-12-02T16:28:05.074Z,14.00
2018-12-02T16:30:33.556Z,14.00
2018-12-02T16:33:02.016Z,14.00
2018-12-02T16:35:31.299Z,13.90
2018-12-02T16:37:59.734Z,13.90
2018-12-02T16:40:29.043Z,13.90
2018-12-02T16:42:57.663Z,13.80
2018-12-02T16:45:26.170Z,13.80
2018-12-02T16:47:55.845Z,13.80
2018-12-02T16:50:29.494Z,13.90
2018-12-02T16:52:59.375Z,13.80
2018-12-02T16:55:31.343Z,13.80
2018-12-02T16:58:07.485Z,13.80
2018-12-02T17:00:47.306Z,13.80
2018-12-02T17:03:15.832Z,13.80
2018-12-02T17:05:44.278Z,13.70
2018-12-02T17:08:12.809Z,13.60
2018-12-02T17:10:41.463Z,13.60
2018-12-02T17:13:10.047Z,13.60
2018-12-02T17:15:44.906Z,13.60
2018-12-02T17:18:13.397Z,13.60
2018-12-02T17:20:41.887Z,13.70
2018-12-02T17:23:10.351Z,13.70
2018-12-02T17:25:38.886Z,13.70
2018-12-02T17:28:07.367Z,13.70
2018-12-02T17:30:39.333Z,13.80
2018-12-02T17:33:08.061Z,13.70
2018-12-02T17:35:37.216Z,13.70
2018-12-02T17:38:06.222Z,13.70
2018-12-02T17:40:34.774Z,13.70
2018-12-02T17:43:03.362Z,13.80
2018-12-02T17:45:31.862Z,13.80
2018-12-02T17:48:00.393Z,13.90
2018-12-02T17:50:28.915Z,13.90
2018-12-02T17:52:57.395Z,13.90
2018-12-02T17:55:25.957Z,14.00
2018-12-02T17:57:54.454Z,14.00
2018-12-02T18:00:26.083Z,14.00
2018-12-02T18:02:55.956Z,14.00
2018-12-02T18:05:26.160Z,14.00
2018-12-02T18:07:55.294Z,14.00
2018-12-02T18:10:23.847Z,14.00
2018-12-02T18:12:53.077Z,14.00
2018-12-02T18:15:21.591Z,14.00
2018-12-02T18:17:50.150Z,14.00
2018-12-02T18:20:19.138Z,13.90
2018-12-02T18:22:47.744Z,13.90
2018-12-02T18:25:17.192Z,13.90
2018-12-02T18:27:46.536Z,13.80
2018-12-02T18:30:19.136Z,13.80
2018-12-02T18:32:48.549Z,13.80
2018-12-02T18:35:23.474Z,13.70
2018-12-02T18:37:52.926Z,13.70
2018-12-02T18:40:21.543Z,13.70
2018-12-02T18:42:50.036Z,13.70
2018-12-02T18:45:18.564Z,13.70
2018-12-02T18:47:47.047Z,13.70
2018-12-02T18:50:15.589Z,13.70
2018-12-02T18:52:44.119Z,13.80
2018-12-02T18:55:13.042Z,13.80
2018-12-02T18:57:41.763Z,13.80
2018-12-02T19:00:18.207Z,13.70
2018-12-02T19:02:47.060Z,13.70
2018-12-02T19:05:15.619Z,13.70
2018-12-02T19:07:44.095Z,13.70
2018-12-02T19:10:14.222Z,13.70
2018-12-02T19:12:42.759Z,13.70
2018-12-02T19:15:12.669Z,13.70
2018-12-02T19:17:41.343Z,13.70
2018-12-02T19:20:14.630Z,13.70
2018-12-02T19:22:43.185Z,13.70
2018-12-02T19:25:14.380Z,13.70
2018-12-02T19:27:43.663Z,13.80
2018-12-02T19:30:18.216Z,13.80
2018-12-02T19:32:47.082Z,13.80
2018-12-02T19:35:17.051Z,13.80
2018-12-02T19:37:47.607Z,13.90
2018-12-02T19:40:16.908Z,13.90
2018-12-02T19:42:46.449Z,13.90
2018-12-02T19:45:18.001Z,13.80
2018-12-02T19:47:46.559Z,13.80
2018-12-02T19:50:17.130Z,13.70
2018-12-02T19:52:48.138Z,13.70
2018-12-02T19:55:16.616Z,13.60
2018-12-02T19:57:48.986Z,13.60
2018-12-02T20:00:24.478Z,13.60
2018-12-02T20:02:52.975Z,13.60
2018-12-02T20:05:22.666Z,13.50
2018-12-02T20:07:55.676Z,13.50
2018-12-02T20:10:31.017Z,13.50
2018-12-02T20:13:09.746Z,13.40
2018-12-02T20:15:42.374Z,13.40
2018-12-02T20:18:10.911Z,13.40
2018-12-02T20:20:47.496Z,13.40
2018-12-02T20:23:20.717Z,13.40
2018-12-02T20:25:50.074Z,13.40
2018-12-02T20:28:19.394Z,13.40
2018-12-02T20:30:47.884Z,13.50
2018-12-02T20:33:17.121Z,13.50
2018-12-02T20:35:45.611Z,13.40
2018-12-02T20:38:14.799Z,13.50
2018-12-02T20:40:43.498Z,13.40
2018-12-02T20:43:12.486Z,13.40
2018-12-02T20:45:41.000Z,13.40
2018-12-02T20:48:10.795Z,13.40
2018-12-02T20:50:39.291Z,13.40
2018-12-02T20:53:07.801Z,13.40
2018-12-02T20:55:37.372Z,13.40
2018-12-02T20:58:06.009Z,13.40
2018-12-02T21:00:35.570Z,13.40
2018-12-02T21:03:12.099Z,13.40
2018-12-02T21:05:44.721Z,13.40
2018-12-02T21:08:13.147Z,13.40
2018-12-02T21:10:42.347Z,13.30
2018-12-02T21:13:10.773Z,13.30
2018-12-02T21:15:39.254Z,13.40
2018-12-02T21:18:07.719Z,13.40
2018-12-02T21:20:37.505Z,13.30
2018-12-02T21:23:07.789Z,13.30
2018-12-02T21:25:36.226Z,13.30
2018-12-02T21:28:07.733Z,13.30
2018-12-02T21:30:37.240Z,13.40
2018-12-02T21:33:06.088Z,13.30
2018-12-02T21:35:36.134Z,13.30
2018-12-02T21:38:05.922Z,13.30
2018-12-02T21:40:35.234Z,13.30
2018-12-02T21:43:05.728Z,13.30
2018-12-02T21:45:35.131Z,13.40
2018-12-02T21:48:04.889Z,13.40
2018-12-02T21:50:39.793Z,13.40
2018-12-02T21:53:08.258Z,13.40
2018-12-02T21:55:38.410Z,13.40
2018-12-02T21:58:07.042Z,13.40
2018-12-02T22:00:40.786Z,13.40
2018-12-02T22:03:10.111Z,13.40
2018-12-02T22:05:38.521Z,13.40
2018-12-02T22:08:07.708Z,13.50
2018-12-02T22:10:36.209Z,13.50
2018-12-02T22:13:04.805Z,13.50
2018-12-02T22:15:33.278Z,13.50
2018-12-02T22:18:02.049Z,13.50
2018-12-02T22:20:30.457Z,13.50
2018-12-02T22:22:58.899Z,13.60
2018-12-02T22:25:27.356Z,13.50
2018-12-02T22:27:56.542Z,13.50
2018-12-02T22:30:26.550Z,13.50
2018-12-02T22:32:55.005Z,13.40
2018-12-02T22:35:25.008Z,13.40
2018-12-02T22:37:53.482Z,13.30
2018-12-02T22:40:23.022Z,13.30
2018-12-02T22:42:52.465Z,13.20
2018-12-02T22:45:24.854Z,13.20
2018-12-02T22:47:54.135Z,13.20
2018-12-02T22:50:23.576Z,13.10
2018-12-02T22:52:52.950Z,13.10
2018-12-02T22:55:21.349Z,13.10
2018-12-02T22:57:49.969Z,13.10
2018-12-02T23:00:38.195Z,13.10
2018-12-02T23:03:13.436Z,13.00
2018-12-02T23:05:42.938Z,13.10
2018-12-02T23:08:11.501Z,13.10
2018-12-02T23:10:40.055Z,13.10
2018-12-02T23:13:09.293Z,13.10
2018-12-02T23:15:39.198Z,13.10
2018-12-02T23:18:10.801Z,13.10
2018-12-02T23:20:43.118Z,13.00
2018-12-02T23:23:13.424Z,13.00
2018-12-02T23:26:14.107Z,13.00
2018-12-02T23:28:48.954Z,13.00
2018-12-02T23:31:19.783Z,13.00
2018-12-02T23:33:48.208Z,13.00
2018-12-02T23:36:18.248Z,13.00
2018-12-02T23:38:48.409Z,13.00
2018-12-02T23:41:18.987Z,13.00
2018-12-02T23:43:49.245Z,13.00
2018-12-02T23:46:20.686Z,13.00
2018-12-02T23:48:55.195Z,12.90
2018-12-02T23:51:24.969Z,12.90
2018-12-02T23:53:56.202Z,12.90
2018-12-02T23:56:25.902Z,12.90
2018-12-02T23:58:55.705Z,12.90
